sensor_id;sensor_type;location;lat;lon;timestamp;P1;durP1;ratioP1;P2;durP2;ratioP2
8421;SDS011;4248;48.196;10.924;2024-01-30T00:00:42;21.50;;;7.10;;
8421;SDS011;4248;48.196;10.924;2024-01-30T00:03:07;10.97;;;5.50;;
8421;SDS011;4248;48.196;10.924;2024-01-30T00:05:33;12.33;;;5.77;;
8421;SDS011;4248;48.196;10.924;2024-01-30T00:07:59;15.63;;;5.67;;
8421;SDS011;4248;48.196;10.924;2024-01-30T00:10:24;8.73;;;4.83;;
8421;SDS011;4248;48.196;10.924;2024-01-30T00:12:50;10.50;;;5.77;;
8421;SDS011;4248;48.196;10.924;2024-01-30T00:15:15;9.10;;;5.07;;
8421;SDS011;4248;48.196;10.924;2024-01-30T00:17:41;11.90;;;5.70;;
8421;SDS011;4248;48.196;10.924;2024-01-30T00:20:07;8.90;;;5.30;;
8421;SDS011;4248;48.196;10.924;2024-01-30T00:22:34;10.40;;;4.70;;
8421;SDS011;4248;48.196;10.924;2024-01-30T00:25:00;9.50;;;5.47;;
8421;SDS011;4248;48.196;10.924;2024-01-30T00:27:25;9.20;;;5.00;;
8421;SDS011;4248;48.196;10.924;2024-01-30T00:29:52;8.88;;;5.25;;
8421;SDS011;4248;48.196;10.924;2024-01-30T00:32:18;11.03;;;4.97;;
8421;SDS011;4248;48.196;10.924;2024-01-30T00:34:44;14.95;;;4.72;;
8421;SDS011;4248;48.196;10.924;2024-01-30T00:37:10;7.80;;;4.77;;
8421;SDS011;4248;48.196;10.924;2024-01-30T00:39:35;9.53;;;5.47;;
8421;SDS011;4248;48.196;10.924;2024-01-30T00:42:01;12.23;;;4.93;;
8421;SDS011;4248;48.196;10.924;2024-01-30T00:44:26;9.60;;;4.57;;
8421;SDS011;4248;48.196;10.924;2024-01-30T00:46:52;7.70;;;4.77;;
8421;SDS011;4248;48.196;10.924;2024-01-30T00:49:18;9.10;;;4.73;;
8421;SDS011;4248;48.196;10.924;2024-01-30T00:51:43;10.60;;;5.00;;
8421;SDS011;4248;48.196;10.924;2024-01-30T00:54:09;8.50;;;4.57;;
8421;SDS011;4248;48.196;10.924;2024-01-30T00:56:35;12.97;;;4.60;;
8421;SDS011;4248;48.196;10.924;2024-01-30T00:59:00;8.43;;;4.63;;
8421;SDS011;4248;48.196;10.924;2024-01-30T01:01:26;10.13;;;4.43;;
8421;SDS011;4248;48.196;10.924;2024-01-30T01:03:51;8.87;;;4.50;;
8421;SDS011;4248;48.196;10.924;2024-01-30T01:06:17;5.77;;;4.20;;
8421;SDS011;4248;48.196;10.924;2024-01-30T01:08:42;10.87;;;4.77;;
8421;SDS011;4248;48.196;10.924;2024-01-30T01:11:08;6.87;;;4.20;;
8421;SDS011;4248;48.196;10.924;2024-01-30T01:13:33;7.40;;;4.47;;
8421;SDS011;4248;48.196;10.924;2024-01-30T01:15:59;8.20;;;4.63;;
8421;SDS011;4248;48.196;10.924;2024-01-30T01:18:24;7.77;;;4.60;;
8421;SDS011;4248;48.196;10.924;2024-01-30T01:20:50;10.97;;;4.63;;
8421;SDS011;4248;48.196;10.924;2024-01-30T01:23:15;8.10;;;5.00;;
8421;SDS011;4248;48.196;10.924;2024-01-30T01:25:41;9.57;;;4.57;;
8421;SDS011;4248;48.196;10.924;2024-01-30T01:28:06;7.90;;;4.53;;
8421;SDS011;4248;48.196;10.924;2024-01-30T01:30:32;8.97;;;4.63;;
8421;SDS011;4248;48.196;10.924;2024-01-30T01:32:57;9.50;;;4.57;;
8421;SDS011;4248;48.196;10.924;2024-01-30T01:35:26;9.27;;;4.93;;
8421;SDS011;4248;48.196;10.924;2024-01-30T01:37:52;13.70;;;4.03;;
8421;SDS011;4248;48.196;10.924;2024-01-30T01:40:23;8.45;;;4.38;;
8421;SDS011;4248;48.196;10.924;2024-01-30T01:42:52;8.73;;;4.32;;
8421;SDS011;4248;48.196;10.924;2024-01-30T01:45:19;9.40;;;4.63;;
8421;SDS011;4248;48.196;10.924;2024-01-30T01:47:46;8.63;;;4.57;;
8421;SDS011;4248;48.196;10.924;2024-01-30T01:50:15;6.68;;;3.67;;
8421;SDS011;4248;48.196;10.924;2024-01-30T01:52:44;5.78;;;3.50;;
8421;SDS011;4248;48.196;10.924;2024-01-30T01:55:12;5.85;;;3.17;;
8421;SDS011;4248;48.196;10.924;2024-01-30T01:57:39;9.05;;;4.70;;
8421;SDS011;4248;48.196;10.924;2024-01-30T02:00:05;7.50;;;4.22;;
8421;SDS011;4248;48.196;10.924;2024-01-30T02:02:32;7.38;;;3.90;;
8421;SDS011;4248;48.196;10.924;2024-01-30T02:05:00;7.30;;;3.97;;
8421;SDS011;4248;48.196;10.924;2024-01-30T02:07:26;8.77;;;4.27;;
8421;SDS011;4248;48.196;10.924;2024-01-30T02:09:53;8.35;;;4.35;;
8421;SDS011;4248;48.196;10.924;2024-01-30T02:12:19;10.00;;;4.53;;
8421;SDS011;4248;48.196;10.924;2024-01-30T02:14:48;6.10;;;4.20;;
8421;SDS011;4248;48.196;10.924;2024-01-30T02:17:14;7.80;;;3.80;;
8421;SDS011;4248;48.196;10.924;2024-01-30T02:19:42;7.13;;;3.83;;
8421;SDS011;4248;48.196;10.924;2024-01-30T02:22:08;9.27;;;4.17;;
8421;SDS011;4248;48.196;10.924;2024-01-30T02:24:34;6.47;;;4.30;;
8421;SDS011;4248;48.196;10.924;2024-01-30T02:27:00;6.00;;;4.00;;
8421;SDS011;4248;48.196;10.924;2024-01-30T02:29:26;6.37;;;3.63;;
8421;SDS011;4248;48.196;10.924;2024-01-30T02:31:51;6.43;;;3.67;;
8421;SDS011;4248;48.196;10.924;2024-01-30T02:34:18;12.00;;;4.67;;
8421;SDS011;4248;48.196;10.924;2024-01-30T02:36:44;6.63;;;3.40;;
8421;SDS011;4248;48.196;10.924;2024-01-30T02:39:10;6.13;;;4.10;;
8421;SDS011;4248;48.196;10.924;2024-01-30T02:41:35;14.87;;;3.87;;
8421;SDS011;4248;48.196;10.924;2024-01-30T02:44:01;9.13;;;4.03;;
8421;SDS011;4248;48.196;10.924;2024-01-30T02:46:28;5.80;;;3.58;;
8421;SDS011;4248;48.196;10.924;2024-01-30T02:48:54;7.77;;;4.10;;
8421;SDS011;4248;48.196;10.924;2024-01-30T02:51:19;6.03;;;3.43;;
8421;SDS011;4248;48.196;10.924;2024-01-30T02:53:45;5.33;;;3.50;;
8421;SDS011;4248;48.196;10.924;2024-01-30T02:56:10;9.13;;;3.67;;
8421;SDS011;4248;48.196;10.924;2024-01-30T02:58:38;4.55;;;3.10;;
8421;SDS011;4248;48.196;10.924;2024-01-30T03:01:05;5.47;;;3.80;;
8421;SDS011;4248;48.196;10.924;2024-01-30T03:03:33;6.30;;;3.65;;
8421;SDS011;4248;48.196;10.924;2024-01-30T03:06:01;6.80;;;3.85;;
8421;SDS011;4248;48.196;10.924;2024-01-30T03:08:27;6.65;;;3.72;;
8421;SDS011;4248;48.196;10.924;2024-01-30T03:10:53;7.13;;;4.20;;
8421;SDS011;4248;48.196;10.924;2024-01-30T03:13:19;7.00;;;4.30;;
8421;SDS011;4248;48.196;10.924;2024-01-30T03:15:45;7.18;;;3.97;;
8421;SDS011;4248;48.196;10.924;2024-01-30T03:18:10;7.27;;;3.80;;
8421;SDS011;4248;48.196;10.924;2024-01-30T03:20:36;7.03;;;3.70;;
8421;SDS011;4248;48.196;10.924;2024-01-30T03:23:01;8.00;;;4.03;;
8421;SDS011;4248;48.196;10.924;2024-01-30T03:25:27;8.45;;;3.80;;
8421;SDS011;4248;48.196;10.924;2024-01-30T03:27:53;5.50;;;3.43;;
8421;SDS011;4248;48.196;10.924;2024-01-30T03:30:19;7.10;;;3.80;;
8421;SDS011;4248;48.196;10.924;2024-01-30T03:32:44;7.97;;;3.53;;
8421;SDS011;4248;48.196;10.924;2024-01-30T03:35:10;6.40;;;3.60;;
8421;SDS011;4248;48.196;10.924;2024-01-30T03:37:35;5.50;;;3.47;;
8421;SDS011;4248;48.196;10.924;2024-01-30T03:40:01;6.43;;;3.73;;
8421;SDS011;4248;48.196;10.924;2024-01-30T03:42:28;7.70;;;4.13;;
8421;SDS011;4248;48.196;10.924;2024-01-30T03:44:54;5.00;;;3.23;;
8421;SDS011;4248;48.196;10.924;2024-01-30T03:47:20;6.70;;;3.65;;
8421;SDS011;4248;48.196;10.924;2024-01-30T03:49:46;6.13;;;3.70;;
8421;SDS011;4248;48.196;10.924;2024-01-30T03:52:12;5.57;;;3.43;;
8421;SDS011;4248;48.196;10.924;2024-01-30T03:54:38;5.90;;;3.63;;
8421;SDS011;4248;48.196;10.924;2024-01-30T03:57:03;10.20;;;4.10;;
8421;SDS011;4248;48.196;10.924;2024-01-30T03:59:29;5.45;;;3.47;;
8421;SDS011;4248;48.196;10.924;2024-01-30T04:01:55;5.20;;;3.57;;
8421;SDS011;4248;48.196;10.924;2024-01-30T04:04:20;7.23;;;3.97;;
8421;SDS011;4248;48.196;10.924;2024-01-30T04:06:46;5.90;;;3.63;;
8421;SDS011;4248;48.196;10.924;2024-01-30T04:09:12;6.77;;;3.80;;
8421;SDS011;4248;48.196;10.924;2024-01-30T04:11:38;5.60;;;3.53;;
8421;SDS011;4248;48.196;10.924;2024-01-30T04:14:04;5.22;;;3.00;;
8421;SDS011;4248;48.196;10.924;2024-01-30T04:16:30;8.70;;;4.37;;
8421;SDS011;4248;48.196;10.924;2024-01-30T04:18:56;8.13;;;3.63;;
8421;SDS011;4248;48.196;10.924;2024-01-30T04:21:21;5.23;;;3.30;;
8421;SDS011;4248;48.196;10.924;2024-01-30T04:23:47;6.70;;;3.20;;
8421;SDS011;4248;48.196;10.924;2024-01-30T04:26:13;7.33;;;4.00;;
8421;SDS011;4248;48.196;10.924;2024-01-30T04:28:41;5.03;;;3.47;;
8421;SDS011;4248;48.196;10.924;2024-01-30T04:31:07;7.47;;;4.00;;
8421;SDS011;4248;48.196;10.924;2024-01-30T04:33:32;6.13;;;2.93;;
8421;SDS011;4248;48.196;10.924;2024-01-30T04:35:58;5.47;;;2.70;;
8421;SDS011;4248;48.196;10.924;2024-01-30T04:38:23;7.47;;;3.13;;
8421;SDS011;4248;48.196;10.924;2024-01-30T04:40:49;6.70;;;3.33;;
8421;SDS011;4248;48.196;10.924;2024-01-30T04:43:14;6.70;;;3.73;;
8421;SDS011;4248;48.196;10.924;2024-01-30T04:45:40;9.98;;;3.90;;
8421;SDS011;4248;48.196;10.924;2024-01-30T04:48:06;5.80;;;3.43;;
8421;SDS011;4248;48.196;10.924;2024-01-30T04:50:32;4.90;;;3.50;;
8421;SDS011;4248;48.196;10.924;2024-01-30T04:52:57;6.27;;;3.57;;
8421;SDS011;4248;48.196;10.924;2024-01-30T04:55:23;5.47;;;3.13;;
8421;SDS011;4248;48.196;10.924;2024-01-30T04:57:49;4.30;;;2.63;;
8421;SDS011;4248;48.196;10.924;2024-01-30T05:00:14;5.70;;;3.33;;
8421;SDS011;4248;48.196;10.924;2024-01-30T05:02:40;6.25;;;3.55;;
8421;SDS011;4248;48.196;10.924;2024-01-30T05:05:06;7.00;;;2.87;;
8421;SDS011;4248;48.196;10.924;2024-01-30T05:07:32;7.75;;;3.50;;
8421;SDS011;4248;48.196;10.924;2024-01-30T05:09:58;4.03;;;2.70;;
8421;SDS011;4248;48.196;10.924;2024-01-30T05:12:23;4.00;;;3.30;;
8421;SDS011;4248;48.196;10.924;2024-01-30T05:14:49;6.23;;;3.13;;
8421;SDS011;4248;48.196;10.924;2024-01-30T05:17:14;4.97;;;3.20;;
8421;SDS011;4248;48.196;10.924;2024-01-30T05:19:40;4.03;;;2.67;;
8421;SDS011;4248;48.196;10.924;2024-01-30T05:22:06;6.60;;;3.03;;
8421;SDS011;4248;48.196;10.924;2024-01-30T05:24:31;3.67;;;2.70;;
8421;SDS011;4248;48.196;10.924;2024-01-30T05:26:57;7.87;;;3.77;;
8421;SDS011;4248;48.196;10.924;2024-01-30T05:29:23;4.33;;;2.90;;
8421;SDS011;4248;48.196;10.924;2024-01-30T05:31:49;5.65;;;3.03;;
8421;SDS011;4248;48.196;10.924;2024-01-30T05:34:15;4.67;;;3.20;;
8421;SDS011;4248;48.196;10.924;2024-01-30T05:36:41;4.90;;;2.70;;
8421;SDS011;4248;48.196;10.924;2024-01-30T05:39:06;4.17;;;2.97;;
8421;SDS011;4248;48.196;10.924;2024-01-30T05:41:32;5.53;;;3.03;;
8421;SDS011;4248;48.196;10.924;2024-01-30T05:43:57;8.03;;;3.10;;
8421;SDS011;4248;48.196;10.924;2024-01-30T05:46:23;3.30;;;2.67;;
8421;SDS011;4248;48.196;10.924;2024-01-30T05:48:48;7.13;;;3.70;;
8421;SDS011;4248;48.196;10.924;2024-01-30T05:51:14;4.67;;;2.70;;
8421;SDS011;4248;48.196;10.924;2024-01-30T05:53:40;5.70;;;3.00;;
8421;SDS011;4248;48.196;10.924;2024-01-30T05:56:06;6.97;;;3.20;;
8421;SDS011;4248;48.196;10.924;2024-01-30T05:58:31;7.47;;;3.17;;
8421;SDS011;4248;48.196;10.924;2024-01-30T06:00:57;5.33;;;2.87;;
8421;SDS011;4248;48.196;10.924;2024-01-30T06:03:23;6.23;;;3.23;;
8421;SDS011;4248;48.196;10.924;2024-01-30T06:05:49;7.00;;;2.90;;
8421;SDS011;4248;48.196;10.924;2024-01-30T06:08:14;3.40;;;2.63;;
8421;SDS011;4248;48.196;10.924;2024-01-30T06:10:40;5.20;;;2.93;;
8421;SDS011;4248;48.196;10.924;2024-01-30T06:13:05;6.30;;;3.27;;
8421;SDS011;4248;48.196;10.924;2024-01-30T06:15:31;6.40;;;2.90;;
8421;SDS011;4248;48.196;10.924;2024-01-30T06:17:57;5.68;;;3.25;;
8421;SDS011;4248;48.196;10.924;2024-01-30T06:20:23;7.53;;;3.67;;
8421;SDS011;4248;48.196;10.924;2024-01-30T06:22:49;14.80;;;6.73;;
8421;SDS011;4248;48.196;10.924;2024-01-30T06:25:14;27.93;;;10.93;;
8421;SDS011;4248;48.196;10.924;2024-01-30T06:27:41;46.30;;;19.65;;
8421;SDS011;4248;48.196;10.924;2024-01-30T06:30:07;25.23;;;11.10;;
8421;SDS011;4248;48.196;10.924;2024-01-30T06:32:33;20.40;;;7.93;;
8421;SDS011;4248;48.196;10.924;2024-01-30T06:35:00;12.77;;;6.20;;
8421;SDS011;4248;48.196;10.924;2024-01-30T06:37:26;16.35;;;8.18;;
8421;SDS011;4248;48.196;10.924;2024-01-30T06:39:51;20.10;;;8.67;;
8421;SDS011;4248;48.196;10.924;2024-01-30T06:42:17;11.60;;;7.00;;
8421;SDS011;4248;48.196;10.924;2024-01-30T06:44:43;10.53;;;5.60;;
8421;SDS011;4248;48.196;10.924;2024-01-30T06:47:09;28.07;;;7.60;;
8421;SDS011;4248;48.196;10.924;2024-01-30T06:49:34;10.93;;;5.57;;
8421;SDS011;4248;48.196;10.924;2024-01-30T06:52:03;15.23;;;6.13;;
8421;SDS011;4248;48.196;10.924;2024-01-30T06:54:31;11.73;;;6.13;;
8421;SDS011;4248;48.196;10.924;2024-01-30T06:56:57;12.75;;;5.10;;
8421;SDS011;4248;48.196;10.924;2024-01-30T06:59:23;12.13;;;6.20;;
8421;SDS011;4248;48.196;10.924;2024-01-30T07:01:49;14.47;;;6.70;;
8421;SDS011;4248;48.196;10.924;2024-01-30T07:04:15;10.73;;;4.17;;
8421;SDS011;4248;48.196;10.924;2024-01-30T07:06:41;11.20;;;3.78;;
8421;SDS011;4248;48.196;10.924;2024-01-30T07:09:07;6.43;;;4.00;;
8421;SDS011;4248;48.196;10.924;2024-01-30T07:11:33;11.45;;;4.22;;
8421;SDS011;4248;48.196;10.924;2024-01-30T07:13:59;8.33;;;4.10;;
8421;SDS011;4248;48.196;10.924;2024-01-30T07:16:24;8.23;;;4.10;;
8421;SDS011;4248;48.196;10.924;2024-01-30T07:18:50;6.90;;;3.57;;
8421;SDS011;4248;48.196;10.924;2024-01-30T07:21:16;6.03;;;3.77;;
8421;SDS011;4248;48.196;10.924;2024-01-30T07:23:42;6.43;;;3.80;;
8421;SDS011;4248;48.196;10.924;2024-01-30T07:26:08;7.83;;;4.30;;
8421;SDS011;4248;48.196;10.924;2024-01-30T07:28:34;5.18;;;3.67;;
8421;SDS011;4248;48.196;10.924;2024-01-30T07:31:00;6.38;;;3.83;;
8421;SDS011;4248;48.196;10.924;2024-01-30T07:33:26;8.30;;;3.80;;
8421;SDS011;4248;48.196;10.924;2024-01-30T07:35:52;5.77;;;3.10;;
8421;SDS011;4248;48.196;10.924;2024-01-30T07:38:18;10.30;;;4.55;;
8421;SDS011;4248;48.196;10.924;2024-01-30T07:40:44;9.77;;;4.80;;
8421;SDS011;4248;48.196;10.924;2024-01-30T07:43:09;8.97;;;4.83;;
8421;SDS011;4248;48.196;10.924;2024-01-30T07:45:35;9.50;;;4.20;;
8421;SDS011;4248;48.196;10.924;2024-01-30T07:48:02;10.60;;;3.47;;
8421;SDS011;4248;48.196;10.924;2024-01-30T07:50:28;7.13;;;2.97;;
8421;SDS011;4248;48.196;10.924;2024-01-30T07:52:55;4.07;;;2.50;;
8421;SDS011;4248;48.196;10.924;2024-01-30T07:55:21;8.82;;;2.88;;
8421;SDS011;4248;48.196;10.924;2024-01-30T07:57:52;3.38;;;2.47;;
8421;SDS011;4248;48.196;10.924;2024-01-30T08:00:21;6.30;;;2.30;;
8421;SDS011;4248;48.196;10.924;2024-01-30T08:02:47;4.20;;;2.72;;
8421;SDS011;4248;48.196;10.924;2024-01-30T08:05:13;4.43;;;2.60;;
8421;SDS011;4248;48.196;10.924;2024-01-30T08:07:40;5.15;;;2.88;;
8421;SDS011;4248;48.196;10.924;2024-01-30T08:10:07;5.15;;;2.60;;
8421;SDS011;4248;48.196;10.924;2024-01-30T08:12:33;5.22;;;2.70;;
8421;SDS011;4248;48.196;10.924;2024-01-30T08:14:59;5.20;;;2.77;;
8421;SDS011;4248;48.196;10.924;2024-01-30T08:17:25;5.47;;;2.45;;
8421;SDS011;4248;48.196;10.924;2024-01-30T08:19:51;5.67;;;2.60;;
8421;SDS011;4248;48.196;10.924;2024-01-30T08:22:16;15.87;;;7.40;;
8421;SDS011;4248;48.196;10.924;2024-01-30T08:24:42;11.13;;;6.30;;
8421;SDS011;4248;48.196;10.924;2024-01-30T08:27:07;12.30;;;6.90;;
8421;SDS011;4248;48.196;10.924;2024-01-30T08:29:35;14.85;;;8.30;;
8421;SDS011;4248;48.196;10.924;2024-01-30T08:32:00;14.85;;;9.20;;
8421;SDS011;4248;48.196;10.924;2024-01-30T08:34:26;13.70;;;6.53;;
8421;SDS011;4248;48.196;10.924;2024-01-30T08:36:52;4.80;;;3.10;;
8421;SDS011;4248;48.196;10.924;2024-01-30T08:39:17;6.10;;;3.43;;
8421;SDS011;4248;48.196;10.924;2024-01-30T08:41:43;12.70;;;3.27;;
8421;SDS011;4248;48.196;10.924;2024-01-30T08:44:09;6.23;;;2.93;;
8421;SDS011;4248;48.196;10.924;2024-01-30T08:46:36;5.45;;;3.45;;
8421;SDS011;4248;48.196;10.924;2024-01-30T08:49:01;4.27;;;2.40;;
8421;SDS011;4248;48.196;10.924;2024-01-30T08:51:28;10.05;;;5.00;;
8421;SDS011;4248;48.196;10.924;2024-01-30T08:53:53;5.50;;;4.10;;
8421;SDS011;4248;48.196;10.924;2024-01-30T08:56:19;9.33;;;4.43;;
8421;SDS011;4248;48.196;10.924;2024-01-30T08:58:44;9.57;;;4.80;;
8421;SDS011;4248;48.196;10.924;2024-01-30T09:01:10;6.80;;;3.77;;
8421;SDS011;4248;48.196;10.924;2024-01-30T09:03:35;6.20;;;3.00;;
8421;SDS011;4248;48.196;10.924;2024-01-30T09:06:07;7.43;;;3.70;;
8421;SDS011;4248;48.196;10.924;2024-01-30T09:08:35;10.75;;;3.88;;
8421;SDS011;4248;48.196;10.924;2024-01-30T09:11:02;6.30;;;3.63;;
8421;SDS011;4248;48.196;10.924;2024-01-30T09:13:37;6.27;;;3.43;;
8421;SDS011;4248;48.196;10.924;2024-01-30T09:16:03;7.37;;;4.10;;
8421;SDS011;4248;48.196;10.924;2024-01-30T09:18:29;7.07;;;4.00;;
8421;SDS011;4248;48.196;10.924;2024-01-30T09:20:55;6.50;;;3.97;;
8421;SDS011;4248;48.196;10.924;2024-01-30T09:23:21;5.90;;;3.47;;
8421;SDS011;4248;48.196;10.924;2024-01-30T09:25:47;6.63;;;3.20;;
8421;SDS011;4248;48.196;10.924;2024-01-30T09:28:12;8.77;;;3.10;;
8421;SDS011;4248;48.196;10.924;2024-01-30T09:30:38;6.00;;;3.33;;
8421;SDS011;4248;48.196;10.924;2024-01-30T09:33:03;6.80;;;3.63;;
8421;SDS011;4248;48.196;10.924;2024-01-30T09:35:29;4.50;;;3.13;;
8421;SDS011;4248;48.196;10.924;2024-01-30T09:37:55;4.67;;;2.87;;
8421;SDS011;4248;48.196;10.924;2024-01-30T09:40:22;7.80;;;3.30;;
8421;SDS011;4248;48.196;10.924;2024-01-30T09:42:47;6.87;;;3.10;;
8421;SDS011;4248;48.196;10.924;2024-01-30T09:45:15;4.53;;;2.50;;
8421;SDS011;4248;48.196;10.924;2024-01-30T09:47:43;7.37;;;3.27;;
8421;SDS011;4248;48.196;10.924;2024-01-30T09:50:10;5.13;;;3.10;;
8421;SDS011;4248;48.196;10.924;2024-01-30T09:52:36;3.87;;;3.07;;
8421;SDS011;4248;48.196;10.924;2024-01-30T09:55:03;5.40;;;3.40;;
8421;SDS011;4248;48.196;10.924;2024-01-30T09:57:29;7.70;;;3.37;;
8421;SDS011;4248;48.196;10.924;2024-01-30T09:59:55;7.03;;;3.10;;
8421;SDS011;4248;48.196;10.924;2024-01-30T10:02:21;5.23;;;2.60;;
8421;SDS011;4248;48.196;10.924;2024-01-30T10:04:47;4.87;;;2.50;;
8421;SDS011;4248;48.196;10.924;2024-01-30T10:07:14;5.93;;;2.43;;
8421;SDS011;4248;48.196;10.924;2024-01-30T10:09:40;5.97;;;2.90;;
8421;SDS011;4248;48.196;10.924;2024-01-30T10:12:05;8.63;;;3.20;;
8421;SDS011;4248;48.196;10.924;2024-01-30T10:14:32;10.20;;;4.63;;
8421;SDS011;4248;48.196;10.924;2024-01-30T10:16:58;6.50;;;3.58;;
8421;SDS011;4248;48.196;10.924;2024-01-30T10:19:24;5.03;;;2.50;;
8421;SDS011;4248;48.196;10.924;2024-01-30T10:21:50;5.73;;;2.83;;
8421;SDS011;4248;48.196;10.924;2024-01-30T10:24:15;6.50;;;2.70;;
8421;SDS011;4248;48.196;10.924;2024-01-30T10:26:43;6.20;;;2.63;;
8421;SDS011;4248;48.196;10.924;2024-01-30T10:29:09;8.20;;;2.30;;
8421;SDS011;4248;48.196;10.924;2024-01-30T10:31:34;7.50;;;2.30;;
8421;SDS011;4248;48.196;10.924;2024-01-30T10:34:00;4.77;;;2.23;;
8421;SDS011;4248;48.196;10.924;2024-01-30T10:36:27;5.83;;;2.60;;
8421;SDS011;4248;48.196;10.924;2024-01-30T10:38:55;10.17;;;2.87;;
8421;SDS011;4248;48.196;10.924;2024-01-30T10:41:26;7.73;;;3.00;;
8421;SDS011;4248;48.196;10.924;2024-01-30T10:43:57;9.33;;;3.60;;
8421;SDS011;4248;48.196;10.924;2024-01-30T10:46:29;10.60;;;3.13;;
8421;SDS011;4248;48.196;10.924;2024-01-30T10:48:57;8.40;;;3.03;;
8421;SDS011;4248;48.196;10.924;2024-01-30T10:51:27;3.60;;;2.33;;
8421;SDS011;4248;48.196;10.924;2024-01-30T10:53:53;5.27;;;2.50;;
8421;SDS011;4248;48.196;10.924;2024-01-30T10:56:22;10.30;;;3.23;;
8421;SDS011;4248;48.196;10.924;2024-01-30T10:58:52;6.67;;;3.00;;
8421;SDS011;4248;48.196;10.924;2024-01-30T11:01:19;4.60;;;2.20;;
8421;SDS011;4248;48.196;10.924;2024-01-30T11:03:47;4.67;;;2.40;;
8421;SDS011;4248;48.196;10.924;2024-01-30T11:06:17;4.00;;;2.17;;
8421;SDS011;4248;48.196;10.924;2024-01-30T11:08:43;7.67;;;2.40;;
8421;SDS011;4248;48.196;10.924;2024-01-30T11:11:25;4.07;;;1.97;;
8421;SDS011;4248;48.196;10.924;2024-01-30T11:13:50;4.77;;;2.63;;
8421;SDS011;4248;48.196;10.924;2024-01-30T11:16:16;6.43;;;3.00;;
8421;SDS011;4248;48.196;10.924;2024-01-30T11:18:42;9.47;;;4.00;;
8421;SDS011;4248;48.196;10.924;2024-01-30T11:21:07;24.63;;;9.60;;
8421;SDS011;4248;48.196;10.924;2024-01-30T11:23:33;15.47;;;8.13;;
8421;SDS011;4248;48.196;10.924;2024-01-30T11:26:00;22.53;;;11.90;;
8421;SDS011;4248;48.196;10.924;2024-01-30T11:28:26;16.57;;;6.97;;
8421;SDS011;4248;48.196;10.924;2024-01-30T11:31:06;9.10;;;4.20;;
8421;SDS011;4248;48.196;10.924;2024-01-30T11:33:33;8.07;;;4.40;;
8421;SDS011;4248;48.196;10.924;2024-01-30T11:35:59;12.43;;;6.70;;
8421;SDS011;4248;48.196;10.924;2024-01-30T11:38:26;25.40;;;11.67;;
8421;SDS011;4248;48.196;10.924;2024-01-30T11:40:53;12.80;;;6.57;;
8421;SDS011;4248;48.196;10.924;2024-01-30T11:43:20;12.43;;;5.13;;
8421;SDS011;4248;48.196;10.924;2024-01-30T11:45:46;9.53;;;4.40;;
8421;SDS011;4248;48.196;10.924;2024-01-30T11:48:12;5.83;;;3.17;;
8421;SDS011;4248;48.196;10.924;2024-01-30T11:50:38;10.17;;;5.60;;
8421;SDS011;4248;48.196;10.924;2024-01-30T11:53:05;5.20;;;2.97;;
8421;SDS011;4248;48.196;10.924;2024-01-30T11:55:31;7.90;;;3.40;;
8421;SDS011;4248;48.196;10.924;2024-01-30T11:57:58;4.70;;;2.70;;
8421;SDS011;4248;48.196;10.924;2024-01-30T12:00:24;5.40;;;3.40;;
8421;SDS011;4248;48.196;10.924;2024-01-30T12:02:50;6.37;;;3.17;;
8421;SDS011;4248;48.196;10.924;2024-01-30T12:05:20;4.90;;;2.90;;
8421;SDS011;4248;48.196;10.924;2024-01-30T12:07:49;6.63;;;2.97;;
8421;SDS011;4248;48.196;10.924;2024-01-30T12:10:15;6.83;;;2.67;;
8421;SDS011;4248;48.196;10.924;2024-01-30T12:12:41;11.10;;;2.53;;
8421;SDS011;4248;48.196;10.924;2024-01-30T12:15:09;7.80;;;2.93;;
8421;SDS011;4248;48.196;10.924;2024-01-30T12:17:35;4.40;;;2.57;;
8421;SDS011;4248;48.196;10.924;2024-01-30T12:22:37;6.73;;;2.90;;
8421;SDS011;4248;48.196;10.924;2024-01-30T12:25:16;4.50;;;2.63;;
8421;SDS011;4248;48.196;10.924;2024-01-30T12:27:44;4.10;;;2.40;;
8421;SDS011;4248;48.196;10.924;2024-01-30T12:30:14;4.90;;;2.50;;
8421;SDS011;4248;48.196;10.924;2024-01-30T12:32:41;5.70;;;2.50;;
8421;SDS011;4248;48.196;10.924;2024-01-30T12:35:11;6.00;;;2.07;;
8421;SDS011;4248;48.196;10.924;2024-01-30T12:37:38;4.80;;;2.40;;
8421;SDS011;4248;48.196;10.924;2024-01-30T12:40:04;6.73;;;2.03;;
8421;SDS011;4248;48.196;10.924;2024-01-30T12:42:34;9.20;;;3.00;;
8421;SDS011;4248;48.196;10.924;2024-01-30T12:45:02;4.37;;;2.10;;
8421;SDS011;4248;48.196;10.924;2024-01-30T12:47:28;5.50;;;2.73;;
8421;SDS011;4248;48.196;10.924;2024-01-30T12:49:54;4.90;;;2.60;;
8421;SDS011;4248;48.196;10.924;2024-01-30T12:52:20;12.83;;;3.30;;
8421;SDS011;4248;48.196;10.924;2024-01-30T12:54:46;7.17;;;3.10;;
8421;SDS011;4248;48.196;10.924;2024-01-30T12:57:12;4.73;;;2.57;;
8421;SDS011;4248;48.196;10.924;2024-01-30T12:59:38;5.27;;;2.30;;
8421;SDS011;4248;48.196;10.924;2024-01-30T13:02:04;6.87;;;2.43;;
8421;SDS011;4248;48.196;10.924;2024-01-30T13:04:30;4.17;;;2.30;;
8421;SDS011;4248;48.196;10.924;2024-01-30T13:06:56;6.63;;;2.60;;
8421;SDS011;4248;48.196;10.924;2024-01-30T13:09:22;3.50;;;2.30;;
8421;SDS011;4248;48.196;10.924;2024-01-30T13:11:48;5.70;;;2.77;;
8421;SDS011;4248;48.196;10.924;2024-01-30T13:14:14;7.73;;;2.57;;
8421;SDS011;4248;48.196;10.924;2024-01-30T13:16:40;7.17;;;2.53;;
8421;SDS011;4248;48.196;10.924;2024-01-30T13:19:05;6.77;;;2.57;;
8421;SDS011;4248;48.196;10.924;2024-01-30T13:21:31;6.67;;;3.50;;
8421;SDS011;4248;48.196;10.924;2024-01-30T13:23:56;10.80;;;2.87;;
8421;SDS011;4248;48.196;10.924;2024-01-30T13:26:22;4.23;;;2.40;;
8421;SDS011;4248;48.196;10.924;2024-01-30T13:28:47;4.80;;;2.90;;
8421;SDS011;4248;48.196;10.924;2024-01-30T13:31:16;6.50;;;2.80;;
8421;SDS011;4248;48.196;10.924;2024-01-30T13:33:42;6.10;;;2.60;;
8421;SDS011;4248;48.196;10.924;2024-01-30T13:36:08;6.10;;;2.70;;
8421;SDS011;4248;48.196;10.924;2024-01-30T13:38:35;7.73;;;2.80;;
8421;SDS011;4248;48.196;10.924;2024-01-30T13:41:01;6.23;;;3.10;;
8421;SDS011;4248;48.196;10.924;2024-01-30T13:43:27;6.00;;;2.47;;
8421;SDS011;4248;48.196;10.924;2024-01-30T13:45:53;5.00;;;2.50;;
8421;SDS011;4248;48.196;10.924;2024-01-30T13:48:19;6.30;;;2.27;;
8421;SDS011;4248;48.196;10.924;2024-01-30T13:50:44;5.60;;;3.37;;
8421;SDS011;4248;48.196;10.924;2024-01-30T13:53:11;5.17;;;2.97;;
8421;SDS011;4248;48.196;10.924;2024-01-30T13:55:37;6.87;;;2.40;;
8421;SDS011;4248;48.196;10.924;2024-01-30T13:58:04;6.83;;;2.80;;
8421;SDS011;4248;48.196;10.924;2024-01-30T14:00:30;4.53;;;2.50;;
8421;SDS011;4248;48.196;10.924;2024-01-30T14:02:55;5.47;;;2.17;;
8421;SDS011;4248;48.196;10.924;2024-01-30T14:05:22;6.03;;;2.27;;
8421;SDS011;4248;48.196;10.924;2024-01-30T14:07:48;4.60;;;2.20;;
8421;SDS011;4248;48.196;10.924;2024-01-30T14:10:14;6.07;;;2.83;;
8421;SDS011;4248;48.196;10.924;2024-01-30T14:12:41;4.10;;;2.30;;
8421;SDS011;4248;48.196;10.924;2024-01-30T14:15:08;3.57;;;2.17;;
8421;SDS011;4248;48.196;10.924;2024-01-30T14:17:34;5.63;;;2.57;;
8421;SDS011;4248;48.196;10.924;2024-01-30T14:20:01;6.18;;;2.50;;
8421;SDS011;4248;48.196;10.924;2024-01-30T14:22:28;21.80;;;2.70;;
8421;SDS011;4248;48.196;10.924;2024-01-30T14:24:53;8.43;;;2.23;;
8421;SDS011;4248;48.196;10.924;2024-01-30T14:27:19;6.10;;;2.20;;
8421;SDS011;4248;48.196;10.924;2024-01-30T14:29:44;4.93;;;2.20;;
8421;SDS011;4248;48.196;10.924;2024-01-30T14:32:10;3.70;;;2.17;;
8421;SDS011;4248;48.196;10.924;2024-01-30T14:34:35;5.27;;;2.30;;
8421;SDS011;4248;48.196;10.924;2024-01-30T14:37:01;4.50;;;2.23;;
8421;SDS011;4248;48.196;10.924;2024-01-30T14:39:27;5.13;;;2.10;;
8421;SDS011;4248;48.196;10.924;2024-01-30T14:41:53;11.50;;;2.53;;
8421;SDS011;4248;48.196;10.924;2024-01-30T14:44:18;6.13;;;2.53;;
8421;SDS011;4248;48.196;10.924;2024-01-30T14:46:44;4.63;;;2.53;;
8421;SDS011;4248;48.196;10.924;2024-01-30T14:49:10;5.40;;;3.20;;
8421;SDS011;4248;48.196;10.924;2024-01-30T14:51:35;5.63;;;2.80;;
8421;SDS011;4248;48.196;10.924;2024-01-30T14:54:01;6.00;;;2.80;;